This is the latest recevied weather packets stored in our database for station/object K5NWZ. If no packets are shown the sender has not sent any weather packets the latest 10 day(s).
| Time | Temp. | Humidity | Pressure | Rain* | Wind** | Luminosity | Snow |
|---|---|---|---|---|---|---|---|
| 1787860988 | 31.67° C | 33% | 1030.9 hPa | 0 mm | - | 717 W/m² | - |
| 1787860687 | 32.22° C | 34% | 1031 hPa | 0 mm | - | 773 W/m² | - |
| 1787860382 | 30.56° C | 36% | 1030.9 hPa | 0 mm | - | 819 W/m² | - |
| 1787860077 | 30.56° C | 36% | 1030.8 hPa | 0 mm | - | 853 W/m² | - |
| 1787859773 | 31.67° C | 36% | 1031.1 hPa | 0 mm | - | 762 W/m² | - |
| 1787859473 | 31.67° C | 36% | 1031.1 hPa | 0 mm | - | 718 W/m² | - |
| 1787859172 | 30.56° C | 37% | 1031.2 hPa | 0 mm | - | 711 W/m² | - |
| 1787858869 | 30.56° C | 38% | 1031.5 hPa | 0 mm | - | 706 W/m² | - |
| 1787858564 | 30.56° C | 39% | 1031.5 hPa | 0 mm | - | 705 W/m² | - |
| 1787858263 | 30° C | 39% | 1031.3 hPa | 0 mm | - | 711 W/m² | - |
| 1787857955 | 30° C | 39% | 1031.6 hPa | 0 mm | - | 678 W/m² | - |
| 1787857650 | 30.56° C | 38% | 1031.3 hPa | 0 mm | - | 287 W/m² | - |
| 1787857346 | 30.56° C | 39% | 1031.3 hPa | 0 mm | - | 871 W/m² | - |
| 1787857043 | 31.11° C | 38% | 1031.6 hPa | 0 mm | - | 829 W/m² | - |
| 1787856738 | 30° C | 40% | 1031.7 hPa | 0 mm | - | 831 W/m² | - |
| 1787856432 | 28.89° C | 42% | 1031.5 hPa | 0 mm | - | 747 W/m² | - |
| 1787856128 | 29.44° C | 42% | 1031.8 hPa | 0 mm | - | 318 W/m² | - |
| 1787855823 | 30° C | 40% | 1031.8 hPa | 0 mm | - | 786 W/m² | - |
| 1787855518 | 30.56° C | 40% | 1031.7 hPa | 0 mm | - | 752 W/m² | - |
| 1787855213 | 29.44° C | 40% | 1031.7 hPa | 0 mm | - | 758 W/m² | - |
| 1787854908 | 28.33° C | 41% | 1031.9 hPa | 0 mm | - | 526 W/m² | - |
| 1787854608 | 28.89° C | 40% | 1031.8 hPa | 0 mm | - | 332 W/m² | - |
| 1787854302 | 30° C | 38% | 1031.8 hPa | 0 mm | - | 743 W/m² | - |
| 1787853998 | 30° C | 42% | 1031.9 hPa | 0 mm | - | 706 W/m² | - |
| 1787853697 | 28.89° C | 42% | 1031.9 hPa | 0 mm | - | 696 W/m² | - |
* Rain latest hour (hover to see other rain measurements)
** Current wind speed in m/s (hover to see current wind gust speed)